createdAt,value
2023-04-25T00:02:16.277Z,7.40
2023-04-25T00:04:47.751Z,7.40
2023-04-25T00:07:20.404Z,7.50
2023-04-25T00:09:51.735Z,7.50
2023-04-25T00:12:25.504Z,7.60
2023-04-25T00:15:01.364Z,7.60
2023-04-25T00:17:32.581Z,7.60
2023-04-25T00:20:06.126Z,7.60
2023-04-25T00:22:38.336Z,7.60
2023-04-25T00:25:10.250Z,7.70
2023-04-25T00:27:42.839Z,7.70
2023-04-25T00:30:17.534Z,7.70
2023-04-25T00:32:48.633Z,7.70
2023-04-25T00:35:19.789Z,7.70
2023-04-25T00:37:50.712Z,7.70
2023-04-25T00:40:21.592Z,7.70
2023-04-25T00:42:58.043Z,8.00
2023-04-25T00:45:33.813Z,7.70
2023-04-25T00:48:05.358Z,7.70
2023-04-25T00:50:37.586Z,7.70
2023-04-25T00:53:11.114Z,7.70
2023-04-25T00:55:42.062Z,7.70
2023-04-25T00:58:12.958Z,7.70
2023-04-25T01:00:47.800Z,7.80
2023-04-25T01:03:21.176Z,7.90
2023-04-25T01:05:52.396Z,7.90
2023-04-25T01:08:27.277Z,7.90
2023-04-25T01:10:58.179Z,8.00
2023-04-25T01:13:29.054Z,8.00
2023-04-25T01:16:02.566Z,8.00
2023-04-25T01:18:33.689Z,8.00
2023-04-25T01:21:14.714Z,8.00
2023-04-25T01:23:46.724Z,8.00
2023-04-25T01:26:17.890Z,7.90
2023-04-25T01:28:49.102Z,7.90
2023-04-25T01:31:20.640Z,7.90
2023-04-25T01:33:52.171Z,8.00
2023-04-25T01:36:26.563Z,7.90
2023-04-25T01:38:57.490Z,7.90
2023-04-25T01:41:28.535Z,7.90
2023-04-25T01:43:59.884Z,7.80
2023-04-25T01:46:31.852Z,7.80
2023-04-25T01:49:02.743Z,7.80
2023-04-25T01:51:36.661Z,7.80
2023-04-25T01:54:08.542Z,7.80
2023-04-25T01:56:41.418Z,7.80
2023-04-25T01:59:12.504Z,7.80
2023-04-25T02:01:43.646Z,7.80
2023-04-25T02:04:14.796Z,7.90
2023-04-25T02:06:48.467Z,7.80
2023-04-25T02:09:24.096Z,7.80
2023-04-25T02:11:55.222Z,7.80
2023-04-25T02:14:26.212Z,7.80
2023-04-25T02:16:58.454Z,7.90
2023-04-25T02:19:32.571Z,7.80
2023-04-25T02:22:08.204Z,7.80
2023-04-25T02:24:39.122Z,7.80
2023-04-25T02:27:10.111Z,7.80
2023-04-25T02:29:40.931Z,7.80
2023-04-25T02:32:11.822Z,7.90
2023-04-25T02:34:42.688Z,8.10
2023-04-25T02:37:16.332Z,7.80
2023-04-25T02:39:47.263Z,7.80
2023-04-25T02:42:18.299Z,7.80
2023-04-25T02:44:49.634Z,7.70
2023-04-25T02:47:20.566Z,7.70
2023-04-25T02:49:51.610Z,7.70
2023-04-25T02:52:25.892Z,7.70
2023-04-25T02:54:56.776Z,7.70
2023-04-25T02:57:27.710Z,7.70
2023-04-25T02:59:57.573Z,7.70
2023-04-25T03:02:28.712Z,7.70
2023-04-25T03:04:59.686Z,7.60
2023-04-25T03:07:33.180Z,7.60
2023-04-25T03:10:04.185Z,7.60
2023-04-25T03:12:47.065Z,7.60
2023-04-25T03:15:17.919Z,7.70
2023-04-25T03:17:48.834Z,7.70
2023-04-25T03:20:19.786Z,7.70
2023-04-25T03:22:53.296Z,7.60
2023-04-25T03:25:24.241Z,7.60
2023-04-25T03:27:55.125Z,7.60
2023-04-25T03:30:25.960Z,7.70
2023-04-25T03:32:56.959Z,7.70
2023-04-25T03:35:27.894Z,8.00
2023-04-25T03:38:01.370Z,7.60
2023-04-25T03:40:35.179Z,7.60
2023-04-25T03:43:06.034Z,7.60
2023-04-25T03:45:37.097Z,7.60
2023-04-25T03:48:08.657Z,7.60
2023-04-25T03:50:39.658Z,7.50
2023-04-25T03:53:15.686Z,7.80
2023-04-25T03:55:46.636Z,7.60
2023-04-25T03:58:17.529Z,7.60
2023-04-25T04:00:48.662Z,7.60
2023-04-25T04:03:22.503Z,7.50
2023-04-25T04:05:53.647Z,7.60
2023-04-25T04:08:27.285Z,7.60
2023-04-25T04:10:58.111Z,7.90
2023-04-25T04:13:30.010Z,7.60
2023-04-25T04:16:01.495Z,7.60
2023-04-25T04:18:32.506Z,7.30
2023-04-25T04:21:03.410Z,7.10
2023-04-25T04:23:39.506Z,6.60
2023-04-25T04:26:11.265Z,6.80
2023-04-25T04:28:42.317Z,7.00
2023-04-25T04:31:13.912Z,6.80
2023-04-25T04:33:45.737Z,6.80
2023-04-25T04:36:16.846Z,6.80
2023-04-25T04:38:50.408Z,6.80
2023-04-25T04:41:21.306Z,6.90
2023-04-25T04:43:54.342Z,6.90
2023-04-25T04:46:25.786Z,6.90
2023-04-25T04:48:57.511Z,7.00
2023-04-25T04:51:28.431Z,6.90
2023-04-25T04:54:03.542Z,7.00
2023-04-25T04:56:34.943Z,7.00
2023-04-25T04:59:09.021Z,6.90
2023-04-25T05:01:42.371Z,7.00
2023-04-25T05:04:16.462Z,7.00
2023-04-25T05:06:49.080Z,7.00
2023-04-25T05:09:26.815Z,7.10
2023-04-25T05:11:57.737Z,7.10
2023-04-25T05:14:28.588Z,7.10
2023-04-25T05:17:02.295Z,7.20
2023-04-25T05:19:33.405Z,7.20
2023-04-25T05:22:04.269Z,7.30
2023-04-25T05:24:37.812Z,7.30
2023-04-25T05:27:08.747Z,7.30
2023-04-25T05:29:39.687Z,7.30
2023-04-25T05:32:12.520Z,7.30
2023-04-25T05:34:43.524Z,7.50
2023-04-25T05:37:14.620Z,7.90
2023-04-25T05:39:48.403Z,7.70
2023-04-25T05:42:19.529Z,7.50
2023-04-25T05:44:50.774Z,7.90
2023-04-25T05:47:24.474Z,8.70
2023-04-25T05:49:55.378Z,8.70
2023-04-25T05:52:26.470Z,8.50
2023-04-25T05:55:00.058Z,8.30
2023-04-25T05:57:31.597Z,8.10
2023-04-25T06:00:02.549Z,8.20
2023-04-25T06:02:33.812Z,8.20
2023-04-25T06:05:05.801Z,8.20
2023-04-25T06:07:36.869Z,8.30
2023-04-25T06:10:12.134Z,8.30
2023-04-25T06:12:43.260Z,8.30
2023-04-25T06:15:27.076Z,8.40
2023-04-25T06:17:59.780Z,8.50
2023-04-25T06:20:30.840Z,8.80
2023-04-25T06:23:04.604Z,9.00
2023-04-25T06:25:38.097Z,9.10
2023-04-25T06:28:09.265Z,9.10
2023-04-25T06:30:40.177Z,9.30
2023-04-25T06:33:12.056Z,9.50
2023-04-25T06:35:43.107Z,9.60
2023-04-25T06:38:14.087Z,9.60
2023-04-25T06:40:47.538Z,9.50
2023-04-25T06:43:39.531Z,9.60
2023-04-25T06:46:10.626Z,9.90
2023-04-25T06:48:41.529Z,10.50
2023-04-25T06:51:14.298Z,11.00
2023-04-25T06:53:45.280Z,11.50
2023-04-25T06:56:18.756Z,11.60
2023-04-25T06:58:50.044Z,11.80
2023-04-25T07:01:22.235Z,11.80
2023-04-25T07:03:53.486Z,12.10
2023-04-25T07:06:24.398Z,12.50
2023-04-25T07:08:55.923Z,13.60
2023-04-25T07:11:29.535Z,14.00
2023-04-25T07:14:00.837Z,14.00
2023-04-25T07:16:31.865Z,13.70
2023-04-25T07:19:03.459Z,13.20
2023-04-25T07:21:35.242Z,12.60
2023-04-25T07:24:06.359Z,12.10
2023-04-25T07:26:39.904Z,11.60
2023-04-25T07:29:11.172Z,11.10
2023-04-25T07:31:42.889Z,10.70
2023-04-25T07:34:14.110Z,10.40
2023-04-25T07:36:46.071Z,10.20
2023-04-25T07:39:17.021Z,10.10
2023-04-25T07:41:51.585Z,10.10
2023-04-25T07:44:25.650Z,10.20
2023-04-25T07:46:56.470Z,10.00
2023-04-25T07:49:27.414Z,10.00
2023-04-25T07:51:58.460Z,9.90
2023-04-25T07:54:29.283Z,10.00
2023-04-25T07:57:03.421Z,9.90
2023-04-25T07:59:34.341Z,9.80
2023-04-25T08:02:05.521Z,9.80
2023-04-25T08:04:37.901Z,9.80
2023-04-25T08:07:09.126Z,9.50
2023-04-25T08:09:39.932Z,9.40
2023-04-25T08:12:13.575Z,9.50
2023-04-25T08:14:44.363Z,9.70
2023-04-25T08:17:16.355Z,9.90
2023-04-25T08:19:47.240Z,10.00
2023-04-25T08:22:18.717Z,10.00
2023-04-25T08:24:49.612Z,10.00
2023-04-25T08:27:24.798Z,10.20
2023-04-25T08:29:59.112Z,10.40
2023-04-25T08:32:30.941Z,10.40
2023-04-25T08:35:04.731Z,10.20
2023-04-25T08:37:36.026Z,9.90
2023-04-25T08:40:10.864Z,10.20
2023-04-25T08:42:45.285Z,10.60
2023-04-25T08:45:16.149Z,10.90
2023-04-25T08:47:49.922Z,11.00
2023-04-25T08:50:23.384Z,11.20
2023-04-25T08:52:56.641Z,11.30
2023-04-25T08:55:28.301Z,11.30
2023-04-25T08:58:03.867Z,11.20
2023-04-25T09:00:35.152Z,10.90
2023-04-25T09:03:07.288Z,10.70
2023-04-25T09:05:41.286Z,10.60
2023-04-25T09:08:14.429Z,10.50
2023-04-25T09:10:45.431Z,10.60
2023-04-25T09:13:27.723Z,10.60
2023-04-25T09:16:03.812Z,10.80
2023-04-25T09:18:36.588Z,10.90
2023-04-25T09:21:14.605Z,11.00
2023-04-25T09:23:48.720Z,11.00
2023-04-25T09:26:21.022Z,10.90
2023-04-25T09:29:09.609Z,10.80
2023-04-25T09:31:40.588Z,10.90
2023-04-25T09:34:16.681Z,11.00
2023-04-25T09:36:47.751Z,11.00
2023-04-25T09:39:20.650Z,11.00
2023-04-25T09:41:51.649Z,10.90
2023-04-25T09:44:30.033Z,10.70
2023-04-25T09:47:01.152Z,10.60
2023-04-25T09:49:32.427Z,10.30
2023-04-25T09:52:03.941Z,10.30
2023-04-25T09:54:34.883Z,10.60
2023-04-25T09:57:14.977Z,10.30
2023-04-25T09:59:50.798Z,10.30
2023-04-25T10:02:23.530Z,10.50
2023-04-25T10:04:56.242Z,10.50
2023-04-25T10:07:29.600Z,10.60
2023-04-25T10:10:04.850Z,10.60
2023-04-25T10:12:37.193Z,10.70
2023-04-25T10:15:13.391Z,10.80
2023-04-25T10:17:44.563Z,11.00
2023-04-25T10:20:16.609Z,11.10
2023-04-25T10:22:50.013Z,11.40
2023-04-25T10:25:21.401Z,11.70
2023-04-25T10:27:59.210Z,11.80
2023-04-25T10:30:32.789Z,12.00
2023-04-25T10:33:04.293Z,12.00
2023-04-25T10:35:37.736Z,11.80
2023-04-25T10:38:14.516Z,11.80
2023-04-25T10:40:46.203Z,11.80
2023-04-25T10:43:41.946Z,11.80
2023-04-25T10:46:27.317Z,11.50
2023-04-25T10:49:00.405Z,11.90
2023-04-25T10:51:47.327Z,11.90
2023-04-25T10:54:27.162Z,11.60
2023-04-25T10:56:58.375Z,11.30
2023-04-25T10:59:29.419Z,11.10
2023-04-25T11:02:03.471Z,11.00
2023-04-25T11:04:36.105Z,10.90
2023-04-25T11:07:14.597Z,10.80
2023-04-25T11:09:45.542Z,10.60
2023-04-25T11:12:17.434Z,10.50
2023-04-25T11:14:48.503Z,10.30
2023-04-25T11:17:22.267Z,10.30
2023-04-25T11:19:53.866Z,10.30
2023-04-25T11:22:25.670Z,10.20
2023-04-25T11:24:56.502Z,10.30
2023-04-25T11:27:27.765Z,10.30
2023-04-25T11:29:58.561Z,10.30
2023-04-25T11:32:32.504Z,10.40
2023-04-25T11:35:03.510Z,10.40
2023-04-25T11:37:35.264Z,10.40
2023-04-25T11:40:07.600Z,10.30
2023-04-25T11:42:38.408Z,10.10
2023-04-25T11:45:11.204Z,10.00
2023-04-25T11:47:44.674Z,10.20
2023-04-25T11:50:15.794Z,10.30
2023-04-25T11:52:47.812Z,10.60
2023-04-25T11:55:19.765Z,10.70
2023-04-25T11:57:53.048Z,10.70
2023-04-25T12:00:31.247Z,10.70
2023-04-25T12:03:04.840Z,10.70
2023-04-25T12:05:41.247Z,11.00
2023-04-25T12:08:15.908Z,11.10
2023-04-25T12:10:49.757Z,11.20
2023-04-25T12:13:25.188Z,11.30
2023-04-25T12:15:58.177Z,11.20
2023-04-25T12:18:31.749Z,11.70
2023-04-25T12:21:02.663Z,11.30
2023-04-25T12:23:33.664Z,11.40
2023-04-25T12:26:05.127Z,11.60
2023-04-25T12:28:36.536Z,11.60
2023-04-25T12:31:09.468Z,11.80
2023-04-25T12:33:43.949Z,12.00
2023-04-25T12:36:15.017Z,12.10
2023-04-25T12:38:46.617Z,12.20
2023-04-25T12:41:17.400Z,12.30
2023-04-25T12:43:48.227Z,12.40
2023-04-25T12:46:19.138Z,12.40
2023-04-25T12:48:52.832Z,12.20
2023-04-25T12:51:26.070Z,12.20
2023-04-25T12:53:56.940Z,12.20
2023-04-25T12:56:28.562Z,12.00
2023-04-25T12:59:02.305Z,12.10
2023-04-25T13:01:35.709Z,12.30
2023-04-25T13:04:10.223Z,12.30
2023-04-25T13:06:41.266Z,12.10
2023-04-25T13:09:13.740Z,11.80
2023-04-25T13:11:44.960Z,11.90
2023-04-25T13:14:16.852Z,11.70
2023-04-25T13:16:47.730Z,11.60
2023-04-25T13:19:21.407Z,11.60
2023-04-25T13:21:52.281Z,11.30
2023-04-25T13:24:23.221Z,11.30
2023-04-25T13:26:54.002Z,11.10
2023-04-25T13:29:24.800Z,10.90
2023-04-25T13:31:56.174Z,11.10
2023-04-25T13:34:29.879Z,11.10
2023-04-25T13:37:01.543Z,11.30
2023-04-25T13:39:32.381Z,11.50
2023-04-25T13:42:03.206Z,11.60
2023-04-25T13:44:34.091Z,11.80
2023-04-25T13:47:04.946Z,12.20
2023-04-25T13:49:38.297Z,12.20
2023-04-25T13:52:09.123Z,12.20
2023-04-25T13:54:40.054Z,12.00
2023-04-25T13:57:12.202Z,11.80
2023-04-25T13:59:44.423Z,11.50
2023-04-25T14:02:15.768Z,11.40
2023-04-25T14:04:49.389Z,11.10
2023-04-25T14:07:22.648Z,11.10
2023-04-25T14:09:53.435Z,11.10
2023-04-25T14:12:24.328Z,11.10
2023-04-25T14:14:55.097Z,11.30
2023-04-25T14:17:25.976Z,11.50
2023-04-25T14:19:59.486Z,11.60
2023-04-25T14:22:30.254Z,11.70
2023-04-25T14:25:01.295Z,11.70
2023-04-25T14:27:32.117Z,11.80
2023-04-25T14:30:03.079Z,11.90
2023-04-25T14:32:34.031Z,12.10
2023-04-25T14:35:08.287Z,12.20
2023-04-25T14:37:39.403Z,12.20
2023-04-25T14:40:13.153Z,12.30
2023-04-25T14:42:44.156Z,12.40
2023-04-25T14:45:15.388Z,12.20
2023-04-25T14:47:47.025Z,12.20
2023-04-25T14:50:20.989Z,12.20
2023-04-25T14:52:53.941Z,12.00
2023-04-25T14:55:24.789Z,11.90
2023-04-25T14:57:57.803Z,12.00
2023-04-25T15:00:29.169Z,12.00
2023-04-25T15:03:00.440Z,12.00
2023-04-25T15:05:34.158Z,12.40
2023-04-25T15:08:06.094Z,11.90
2023-04-25T15:10:37.460Z,11.50
2023-04-25T15:13:08.754Z,11.20
2023-04-25T15:15:39.712Z,11.00
2023-04-25T15:18:11.181Z,11.00
2023-04-25T15:20:47.750Z,11.00
2023-04-25T15:23:18.553Z,11.40
2023-04-25T15:25:49.810Z,11.50
2023-04-25T15:28:22.480Z,11.70
2023-04-25T15:30:53.474Z,11.70
2023-04-25T15:33:24.439Z,11.70
2023-04-25T15:35:59.018Z,11.60
2023-04-25T15:38:29.822Z,11.60
2023-04-25T15:41:00.838Z,11.60
2023-04-25T15:43:31.796Z,11.60
2023-04-25T15:46:02.690Z,11.70
2023-04-25T15:48:36.331Z,11.70
2023-04-25T15:51:09.885Z,11.70
2023-04-25T15:53:40.953Z,11.50
2023-04-25T15:56:12.171Z,11.40
2023-04-25T15:58:42.952Z,11.40
2023-04-25T16:01:14.268Z,11.50
2023-04-25T16:03:45.389Z,11.60
2023-04-25T16:06:18.956Z,11.60
2023-04-25T16:08:50.025Z,11.70
2023-04-25T16:11:20.960Z,11.60
2023-04-25T16:13:52.540Z,11.50
2023-04-25T16:16:23.882Z,11.40
2023-04-25T16:18:57.880Z,11.30
2023-04-25T16:21:32.252Z,11.10
2023-04-25T16:24:03.223Z,11.00
2023-04-25T16:26:34.122Z,10.90
2023-04-25T16:29:07.320Z,10.80
2023-04-25T16:31:38.845Z,10.80
2023-04-25T16:34:12.817Z,10.60
2023-04-25T16:36:46.414Z,10.50
2023-04-25T16:39:17.947Z,10.40
2023-04-25T16:41:49.078Z,10.30
2023-04-25T16:44:19.913Z,10.50
2023-04-25T16:46:50.880Z,10.20
2023-04-25T16:49:21.818Z,10.20
2023-04-25T16:51:55.266Z,10.20
2023-04-25T16:54:26.680Z,10.20
2023-04-25T16:56:58.295Z,10.10
2023-04-25T16:59:29.623Z,10.10
2023-04-25T17:02:02.560Z,10.20
2023-04-25T17:04:33.799Z,10.20
2023-04-25T17:07:08.002Z,10.20
2023-04-25T17:09:39.053Z,10.30
2023-04-25T17:12:10.542Z,10.20
2023-04-25T17:14:41.976Z,10.20
2023-04-25T17:17:12.875Z,10.20
2023-04-25T17:19:44.083Z,10.10
2023-04-25T17:22:17.611Z,10.10
2023-04-25T17:24:49.564Z,10.10
2023-04-25T17:27:20.620Z,10.10
2023-04-25T17:29:51.775Z,10.20
2023-04-25T17:32:23.568Z,10.10
2023-04-25T17:34:55.708Z,10.00
2023-04-25T17:37:29.469Z,9.90
2023-04-25T17:40:00.382Z,9.90
2023-04-25T17:42:31.445Z,9.80
2023-04-25T17:45:02.253Z,9.90
2023-04-25T17:47:33.108Z,9.90
2023-04-25T17:50:04.920Z,10.00
2023-04-25T17:52:38.775Z,9.90
2023-04-25T17:55:10.357Z,9.90
2023-04-25T17:57:41.204Z,9.90
2023-04-25T18:00:13.703Z,9.80
2023-04-25T18:02:45.614Z,9.90
2023-04-25T18:05:16.712Z,9.80
2023-04-25T18:07:50.327Z,9.80
2023-04-25T18:10:21.395Z,9.70
2023-04-25T18:12:53.289Z,9.70
2023-04-25T18:15:25.138Z,9.50
2023-04-25T18:17:57.961Z,9.50
2023-04-25T18:20:28.966Z,9.50
2023-04-25T18:23:02.865Z,9.40
2023-04-25T18:25:33.844Z,9.40
2023-04-25T18:28:04.756Z,9.40
2023-04-25T18:30:35.615Z,9.30
2023-04-25T18:33:06.526Z,9.20
2023-04-25T18:35:40.472Z,9.10
2023-04-25T18:38:34.819Z,9.10
2023-04-25T18:41:33.677Z,9.00
2023-04-25T18:44:01.360Z,8.90
2023-04-25T18:46:33.168Z,8.90
2023-04-25T18:49:04.644Z,8.90
2023-04-25T18:51:35.605Z,8.90
2023-04-25T18:54:11.151Z,8.90
2023-04-25T18:56:41.990Z,8.90
2023-04-25T18:59:15.634Z,8.90
2023-04-25T19:01:46.915Z,8.90
2023-04-25T19:04:21.509Z,8.90
2023-04-25T19:06:52.491Z,8.90
2023-04-25T19:09:26.081Z,8.90
2023-04-25T19:11:57.578Z,8.90
2023-04-25T19:14:28.818Z,8.70
2023-04-25T19:17:00.237Z,8.70
2023-04-25T19:19:31.246Z,8.70
2023-04-25T19:22:02.347Z,8.60
2023-04-25T19:24:35.822Z,8.50
2023-04-25T19:27:06.860Z,8.60
2023-04-25T19:29:39.030Z,8.50
2023-04-25T19:32:09.979Z,8.50
2023-04-25T19:34:41.501Z,8.30
2023-04-25T19:37:12.281Z,8.20
2023-04-25T19:39:47.333Z,8.20
2023-04-25T19:42:21.588Z,8.20
2023-04-25T19:44:53.115Z,8.20
2023-04-25T19:47:24.049Z,8.10
2023-04-25T19:49:55.249Z,8.00
2023-04-25T19:52:26.170Z,8.00
2023-04-25T19:55:02.527Z,7.90
2023-04-25T19:57:34.613Z,7.90
2023-04-25T20:00:09.115Z,7.90
2023-04-25T20:02:40.920Z,8.00
2023-04-25T20:05:12.365Z,7.90
2023-04-25T20:07:43.482Z,8.00
2023-04-25T20:10:17.525Z,7.90
2023-04-25T20:12:48.730Z,7.80
2023-04-25T20:15:21.886Z,7.80
2023-04-25T20:17:53.199Z,7.70
2023-04-25T20:20:24.168Z,7.60
2023-04-25T20:22:55.691Z,7.60
2023-04-25T20:25:29.675Z,7.60
2023-04-25T20:28:00.459Z,7.60
2023-04-25T20:30:31.760Z,7.50
2023-04-25T20:33:04.394Z,7.50
2023-04-25T20:35:35.161Z,7.50
2023-04-25T20:38:07.349Z,7.50
2023-04-25T20:40:40.890Z,7.40
2023-04-25T20:43:12.898Z,7.30
2023-04-25T20:45:44.021Z,7.30
2023-04-25T20:48:15.610Z,7.20
2023-04-25T20:50:46.779Z,7.20
2023-04-25T20:53:17.801Z,7.10
2023-04-25T20:55:51.688Z,7.10
2023-04-25T20:58:23.175Z,7.00
2023-04-25T21:00:55.062Z,7.00
2023-04-25T21:03:26.197Z,7.00
2023-04-25T21:05:57.416Z,7.00
2023-04-25T21:08:28.260Z,6.90
2023-04-25T21:11:01.638Z,6.80
2023-04-25T21:13:32.566Z,6.80
2023-04-25T21:16:03.503Z,6.70
2023-04-25T21:18:34.903Z,6.60
2023-04-25T21:21:06.021Z,6.60
2023-04-25T21:23:36.816Z,6.60
2023-04-25T21:26:10.292Z,6.50
2023-04-25T21:28:41.199Z,6.40
2023-04-25T21:31:12.015Z,6.40
2023-04-25T21:33:42.966Z,6.30
2023-04-25T21:36:13.744Z,6.30
2023-04-25T21:38:44.541Z,6.20
2023-04-25T21:41:17.906Z,6.10
2023-04-25T21:43:48.679Z,6.00
2023-04-25T21:46:23.726Z,6.00
2023-04-25T21:48:55.221Z,6.00
2023-04-25T21:51:59.626Z,6.00
2023-04-25T21:54:36.589Z,5.90
2023-04-25T21:57:11.159Z,5.90
2023-04-25T21:59:41.997Z,5.80
2023-04-25T22:02:13.142Z,5.70
2023-04-25T22:04:47.279Z,5.60
2023-04-25T22:07:19.030Z,5.60
2023-04-25T22:09:54.844Z,5.60
2023-04-25T22:12:28.754Z,5.50
2023-04-25T22:14:59.751Z,5.50
2023-04-25T22:17:31.379Z,5.50
2023-04-25T22:20:09.939Z,5.40
2023-04-25T22:22:40.891Z,5.70
2023-04-25T22:25:13.044Z,5.30
2023-04-25T22:27:46.521Z,5.30
2023-04-25T22:30:18.563Z,5.30
2023-04-25T22:32:49.899Z,5.20
2023-04-25T22:35:23.998Z,5.20
2023-04-25T22:37:55.070Z,5.20
2023-04-25T22:40:27.827Z,5.10
2023-04-25T22:43:01.306Z,5.10
2023-04-25T22:45:32.712Z,5.10
2023-04-25T22:48:03.838Z,5.00
2023-04-25T22:50:34.792Z,5.00
2023-04-25T22:53:09.430Z,5.00
2023-04-25T22:55:44.458Z,5.00
2023-04-25T22:58:17.850Z,5.00
2023-04-25T23:00:48.673Z,4.90
2023-04-25T23:03:21.994Z,4.90
2023-04-25T23:05:53.082Z,4.90
2023-04-25T23:08:24.229Z,4.90
2023-04-25T23:10:55.123Z,4.80
2023-04-25T23:13:28.540Z,4.60
2023-04-25T23:15:59.378Z,4.80
2023-04-25T23:18:30.230Z,4.70
2023-04-25T23:21:07.695Z,4.70
2023-04-25T23:23:38.943Z,4.50
2023-04-25T23:26:12.696Z,4.70
2023-04-25T23:28:47.017Z,4.60
2023-04-25T23:31:17.997Z,4.60
2023-04-25T23:33:49.121Z,4.60
2023-04-25T23:36:21.516Z,4.50
2023-04-25T23:38:53.230Z,4.50
2023-04-25T23:41:25.434Z,4.40
2023-04-25T23:43:59.015Z,4.40
2023-04-25T23:46:32.066Z,4.40
2023-04-25T23:49:04.516Z,4.40
2023-04-25T23:51:35.441Z,4.80
2023-04-25T23:54:06.342Z,4.30
2023-04-25T23:56:37.157Z,4.30
2023-04-25T23:59:10.832Z,4.30
